createdAt,value
2022-09-15T00:03:52.185Z,79.02
2022-09-15T00:08:55.828Z,79.14
2022-09-15T00:14:01.949Z,79.03
2022-09-15T00:19:06.808Z,78.74
2022-09-15T00:24:10.631Z,78.79
2022-09-15T00:29:13.710Z,78.92
2022-09-15T00:34:16.820Z,79.13
2022-09-15T00:39:20.737Z,78.94
2022-09-15T00:44:23.641Z,79.19
2022-09-15T00:49:37.991Z,79.22
2022-09-15T00:54:52.748Z,79.24
2022-09-15T00:59:59.211Z,79.61
2022-09-15T01:05:08.025Z,79.52
2022-09-15T01:10:28.228Z,79.79
2022-09-15T01:22:15.049Z,79.50
2022-09-15T01:28:01.955Z,79.56
2022-09-15T01:33:37.668Z,79.59
2022-09-15T01:38:49.611Z,79.88
2022-09-15T01:44:02.611Z,79.78
2022-09-15T01:49:11.371Z,80.04
2022-09-15T01:54:19.529Z,79.81
2022-09-15T01:59:23.258Z,79.86
2022-09-15T02:04:29.894Z,79.96
2022-09-15T02:09:54.945Z,79.29
2022-09-15T02:15:08.895Z,79.44
2022-09-15T02:20:33.316Z,79.41
2022-09-15T02:25:47.392Z,79.41
2022-09-15T02:30:53.778Z,79.57
2022-09-15T02:35:57.071Z,79.41
2022-09-15T02:41:01.394Z,79.17
2022-09-15T02:46:04.535Z,79.24
2022-09-15T02:51:07.807Z,79.42
2022-09-15T02:56:10.917Z,79.49
2022-09-15T03:01:15.968Z,79.60
2022-09-15T03:06:21.329Z,79.50
2022-09-15T03:11:27.398Z,79.47
2022-09-15T03:16:34.590Z,79.39
2022-09-15T03:21:38.019Z,79.49
2022-09-15T03:26:41.543Z,79.48
2022-09-15T03:31:44.705Z,79.60
2022-09-15T03:36:47.863Z,79.90
2022-09-15T03:41:51.157Z,79.75
2022-09-15T03:46:54.266Z,79.74
2022-09-15T03:51:59.231Z,79.84
2022-09-15T03:57:03.660Z,79.75
2022-09-15T04:02:06.703Z,79.63
2022-09-15T04:07:10.065Z,79.83
2022-09-15T04:12:13.380Z,80.14
2022-09-15T04:17:16.486Z,80.30
2022-09-15T04:22:20.539Z,80.61
2022-09-15T04:27:24.026Z,80.38
2022-09-15T04:32:30.019Z,80.32
2022-09-15T04:37:33.719Z,80.79
2022-09-15T04:42:37.263Z,81.11
2022-09-15T04:47:40.446Z,81.35
2022-09-15T04:52:43.548Z,81.46
2022-09-15T04:57:46.865Z,81.37
2022-09-15T05:02:50.488Z,81.39
2022-09-15T05:07:53.890Z,81.32
2022-09-15T05:12:56.945Z,81.32
2022-09-15T05:18:00.617Z,81.37
2022-09-15T05:23:03.744Z,81.35
2022-09-15T05:28:07.961Z,81.17
2022-09-15T05:33:11.298Z,80.79
2022-09-15T05:38:14.375Z,80.25
2022-09-15T05:43:18.727Z,80.25
2022-09-15T05:48:22.429Z,80.55
2022-09-15T05:53:26.842Z,80.75
2022-09-15T05:58:31.086Z,80.56
2022-09-15T06:03:35.735Z,80.48
2022-09-15T06:08:44.457Z,80.14
2022-09-15T06:13:49.324Z,79.85
2022-09-15T06:18:54.299Z,79.19
2022-09-15T06:24:01.646Z,78.68
2022-09-15T06:29:06.269Z,77.89
2022-09-15T06:34:30.631Z,77.32
2022-09-15T06:39:33.834Z,76.74
2022-09-15T06:44:37.066Z,76.30
2022-09-15T06:49:40.158Z,75.36
2022-09-15T06:54:43.253Z,74.61
2022-09-15T06:59:46.463Z,74.68
2022-09-15T07:04:49.875Z,74.77
2022-09-15T07:09:52.984Z,75.11
2022-09-15T07:14:56.193Z,74.89
2022-09-15T07:20:00.731Z,74.67
2022-09-15T07:25:04.687Z,74.43
2022-09-15T07:30:08.897Z,74.11
2022-09-15T07:35:12.831Z,73.71
2022-09-15T07:40:16.178Z,73.57
2022-09-15T07:45:19.401Z,73.00
2022-09-15T07:50:22.813Z,72.74
2022-09-15T07:55:26.063Z,72.11
2022-09-15T08:00:30.358Z,71.86
2022-09-15T08:05:37.769Z,71.40
2022-09-15T08:10:42.963Z,70.72
2022-09-15T08:15:47.380Z,70.49
2022-09-15T08:20:50.600Z,69.64
2022-09-15T08:25:54.011Z,68.57
2022-09-15T08:31:09.522Z,66.64
2022-09-15T08:36:13.742Z,65.95
2022-09-15T08:41:33.668Z,66.58
2022-09-15T08:47:19.478Z,66.58
2022-09-15T08:52:54.420Z,64.99
2022-09-15T08:57:57.610Z,65.82
2022-09-15T09:03:36.248Z,65.35
2022-09-15T09:09:12.018Z,63.93
2022-09-15T09:14:36.946Z,63.88
2022-09-15T09:20:18.644Z,62.77
2022-09-15T09:25:27.954Z,62.10
2022-09-15T09:30:36.525Z,62.19
2022-09-15T09:35:45.812Z,61.60
2022-09-15T09:40:51.246Z,61.34
2022-09-15T09:45:54.523Z,61.81
2022-09-15T09:50:57.870Z,62.38
2022-09-15T09:56:25.945Z,62.60
2022-09-15T10:01:29.673Z,62.84
2022-09-15T10:06:34.337Z,63.76
2022-09-15T10:11:57.694Z,63.35
2022-09-15T10:17:36.552Z,62.96
2022-09-15T10:22:42.388Z,63.10
2022-09-15T10:28:01.496Z,63.04
2022-09-15T10:33:37.118Z,63.93
2022-09-15T10:38:54.933Z,64.18
2022-09-15T10:44:26.078Z,64.41
2022-09-15T10:49:52.345Z,64.43
2022-09-15T10:55:51.651Z,64.89
2022-09-15T11:01:28.682Z,64.54
2022-09-15T11:06:40.682Z,63.72
2022-09-15T11:12:07.636Z,62.81
2022-09-15T11:17:53.541Z,62.40
2022-09-15T11:23:22.968Z,62.03
2022-09-15T11:28:58.428Z,62.22
2022-09-15T11:34:17.862Z,61.90
2022-09-15T11:39:31.579Z,62.19
2022-09-15T11:44:43.075Z,61.99
2022-09-15T11:49:57.313Z,62.44
2022-09-15T11:55:38.643Z,62.03
2022-09-15T12:01:10.552Z,61.69
2022-09-15T12:06:23.773Z,60.10
2022-09-15T12:11:32.406Z,59.89
2022-09-15T12:16:36.430Z,59.58
2022-09-15T12:22:01.008Z,58.94
2022-09-15T12:27:05.172Z,58.44
2022-09-15T12:32:33.383Z,57.03
2022-09-15T12:37:40.263Z,56.49
2022-09-15T12:42:46.453Z,56.79
2022-09-15T12:48:29.482Z,55.03
2022-09-15T12:53:50.375Z,54.27
2022-09-15T12:58:56.069Z,54.11
2022-09-15T13:03:59.096Z,53.76
2022-09-15T13:09:02.626Z,53.02
2022-09-15T13:14:08.897Z,52.78
2022-09-15T13:19:29.887Z,52.15
2022-09-15T13:24:59.022Z,52.40
2022-09-15T13:30:39.627Z,50.92
2022-09-15T13:35:52.136Z,49.47
2022-09-15T13:41:31.178Z,50.05
2022-09-15T13:46:50.354Z,50.51
2022-09-15T13:52:13.027Z,51.02
2022-09-15T13:57:16.372Z,50.99
2022-09-15T14:02:21.246Z,50.96
2022-09-15T14:07:26.035Z,51.93
2022-09-15T14:12:29.446Z,52.41
2022-09-15T14:17:34.377Z,53.63
2022-09-15T14:22:41.291Z,57.87
2022-09-15T14:27:53.837Z,59.26
2022-09-15T14:33:01.053Z,60.17
2022-09-15T14:38:04.958Z,60.79
2022-09-15T14:43:36.196Z,61.29
2022-09-15T14:48:40.355Z,61.57
2022-09-15T14:53:45.185Z,62.27
2022-09-15T14:58:56.243Z,62.74
2022-09-15T15:04:24.778Z,61.85
2022-09-15T15:09:56.872Z,62.33
2022-09-15T15:15:01.427Z,62.03
2022-09-15T15:20:10.696Z,62.62
2022-09-15T15:25:36.793Z,62.76
2022-09-15T15:30:42.477Z,62.01
2022-09-15T15:35:46.393Z,61.63
2022-09-15T15:41:00.555Z,60.69
2022-09-15T15:46:07.794Z,59.74
2022-09-15T15:51:11.075Z,60.01
2022-09-15T15:56:14.741Z,59.25
2022-09-15T16:01:18.060Z,58.78
2022-09-15T16:06:22.335Z,58.90
2022-09-15T16:11:25.477Z,58.51
2022-09-15T16:16:29.637Z,58.28
2022-09-15T16:21:39.811Z,58.92
2022-09-15T16:26:44.177Z,58.69
2022-09-15T16:31:48.930Z,58.54
2022-09-15T16:36:52.135Z,58.52
2022-09-15T16:41:55.276Z,58.85
2022-09-15T16:46:58.714Z,58.63
2022-09-15T16:52:02.120Z,58.87
2022-09-15T16:57:05.175Z,59.38
2022-09-15T17:02:14.357Z,59.99
2022-09-15T17:07:17.917Z,60.10
2022-09-15T17:12:22.490Z,60.69
2022-09-15T17:17:26.335Z,61.15
2022-09-15T17:22:29.625Z,61.31
2022-09-15T17:27:32.773Z,61.65
2022-09-15T17:32:36.160Z,61.11
2022-09-15T17:37:39.339Z,60.79
2022-09-15T17:42:43.681Z,61.03
2022-09-15T17:47:48.619Z,61.15
2022-09-15T17:52:52.233Z,61.73
2022-09-15T17:57:57.810Z,62.04
2022-09-15T18:03:11.101Z,62.28
2022-09-15T18:08:16.748Z,62.79
2022-09-15T18:13:24.416Z,63.20
2022-09-15T18:18:28.651Z,63.72
2022-09-15T18:23:31.863Z,64.21
2022-09-15T18:28:34.969Z,64.63
2022-09-15T18:33:38.090Z,65.06
2022-09-15T18:38:42.111Z,65.26
2022-09-15T18:43:49.254Z,65.45
2022-09-15T18:48:53.023Z,65.84
2022-09-15T18:53:57.593Z,66.36
2022-09-15T18:59:02.010Z,66.61
2022-09-15T19:04:05.106Z,67.04
2022-09-15T19:09:08.212Z,67.61
2022-09-15T19:14:11.354Z,68.08
2022-09-15T19:19:15.013Z,68.50
2022-09-15T19:24:18.456Z,68.89
2022-09-15T19:29:21.557Z,69.03
2022-09-15T19:34:24.670Z,69.56
2022-09-15T19:39:27.979Z,69.86
2022-09-15T19:44:31.099Z,70.14
2022-09-15T19:49:34.404Z,70.44
2022-09-15T19:54:37.604Z,71.26
2022-09-15T19:59:40.820Z,71.29
2022-09-15T20:10:05.402Z,72.15
2022-09-15T20:15:09.161Z,72.74
2022-09-15T20:20:12.302Z,72.99
2022-09-15T20:25:15.648Z,73.21
2022-09-15T20:30:21.999Z,73.70
2022-09-15T20:35:24.978Z,73.62
2022-09-15T20:40:28.064Z,73.93
2022-09-15T20:45:36.483Z,74.15
2022-09-15T20:50:40.358Z,74.57
2022-09-15T20:55:50.603Z,75.06
2022-09-15T21:01:27.805Z,75.44
2022-09-15T21:06:31.842Z,75.50
2022-09-15T21:11:35.977Z,75.59
2022-09-15T21:16:39.394Z,75.83
2022-09-15T21:21:42.518Z,75.71
2022-09-15T21:27:04.074Z,75.91
2022-09-15T21:32:07.204Z,76.13
2022-09-15T21:37:11.171Z,76.07
2022-09-15T21:42:14.274Z,75.82
2022-09-15T21:47:17.381Z,75.95
2022-09-15T21:52:20.486Z,75.79
2022-09-15T21:57:24.219Z,76.10
2022-09-15T22:02:27.699Z,76.00
2022-09-15T22:07:30.929Z,76.04
2022-09-15T22:12:33.963Z,76.07
2022-09-15T22:17:37.037Z,76.01
2022-09-15T22:22:40.770Z,76.11
2022-09-15T22:27:43.969Z,76.10
2022-09-15T22:32:47.184Z,76.55
2022-09-15T22:37:50.235Z,76.82
2022-09-15T22:42:53.282Z,77.09
2022-09-15T22:47:56.934Z,77.01
2022-09-15T22:53:00.006Z,77.01
2022-09-15T22:58:03.131Z,77.11
2022-09-15T23:03:07.653Z,76.89
2022-09-15T23:08:10.976Z,77.29
2022-09-15T23:13:14.992Z,77.47
2022-09-15T23:18:18.102Z,77.57
2022-09-15T23:23:21.152Z,77.49
2022-09-15T23:28:24.841Z,77.96
2022-09-15T23:33:34.136Z,78.08
2022-09-15T23:38:40.512Z,78.57
2022-09-15T23:43:43.902Z,79.07
2022-09-15T23:48:46.962Z,79.47
2022-09-15T23:53:50.018Z,79.67
2022-09-15T23:58:53.004Z,79.86
